createdAt,value
2019-04-06T00:02:26.704Z,32.77
2019-04-06T00:05:31.625Z,34.43
2019-04-06T00:08:36.647Z,34.13
2019-04-06T00:11:41.721Z,35.40
2019-04-06T00:14:46.661Z,32.63
2019-04-06T00:17:51.573Z,31.07
2019-04-06T00:20:56.484Z,27.70
2019-04-06T00:24:01.477Z,30.80
2019-04-06T00:27:06.480Z,35.40
2019-04-06T00:30:11.960Z,31.40
2019-04-06T00:33:18.050Z,29.80
2019-04-06T00:36:23.106Z,33.67
2019-04-06T00:39:28.102Z,34.07
2019-04-06T00:42:33.120Z,31.23
2019-04-06T00:45:38.034Z,32.37
2019-04-06T00:48:42.942Z,33.60
2019-04-06T00:51:47.846Z,32.53
2019-04-06T00:54:52.770Z,32.20
2019-04-06T00:57:57.697Z,33.30
2019-04-06T01:01:02.772Z,29.57
2019-04-06T01:04:07.777Z,33.43
2019-04-06T01:07:12.833Z,31.13
2019-04-06T01:10:17.821Z,30.80
2019-04-06T01:13:22.810Z,33.07
2019-04-06T01:16:27.734Z,28.57
2019-04-06T01:19:32.779Z,34.70
2019-04-06T01:22:37.874Z,31.80
2019-04-06T01:25:42.801Z,27.90
2019-04-06T01:28:47.884Z,30.13
2019-04-06T01:31:52.797Z,29.20
2019-04-06T01:34:57.721Z,27.57
2019-04-06T01:38:02.787Z,30.00
2019-04-06T01:41:07.820Z,26.17
2019-04-06T01:44:12.785Z,32.10
2019-04-06T01:47:17.718Z,32.47
2019-04-06T01:50:22.781Z,30.70
2019-04-06T01:53:27.777Z,32.17
2019-04-06T01:56:32.718Z,30.10
2019-04-06T01:59:37.913Z,35.90
2019-04-06T02:02:45.372Z,30.73
2019-04-06T02:05:50.365Z,28.33
2019-04-06T02:08:55.292Z,30.60
2019-04-06T02:12:00.375Z,31.77
2019-04-06T02:15:06.085Z,30.53
2019-04-06T02:18:11.012Z,29.27
2019-04-06T02:21:15.945Z,30.73
2019-04-06T02:24:20.972Z,29.77
2019-04-06T02:27:25.941Z,29.50
2019-04-06T02:30:34.204Z,34.30
2019-04-06T02:33:49.779Z,31.90
2019-04-06T02:37:08.646Z,30.83
2019-04-06T02:40:28.953Z,30.77
2019-04-06T02:43:35.136Z,29.60
2019-04-06T02:46:40.132Z,29.00
2019-04-06T02:49:45.144Z,31.47
2019-04-06T02:52:50.130Z,33.27
2019-04-06T02:55:55.129Z,29.57
2019-04-06T02:59:00.190Z,28.23
2019-04-06T03:02:05.265Z,28.13
2019-04-06T03:05:10.448Z,30.10
2019-04-06T03:08:15.700Z,27.03
2019-04-06T03:11:20.629Z,30.07
2019-04-06T03:14:25.620Z,25.17
2019-04-06T03:17:30.619Z,25.20
2019-04-06T03:20:35.619Z,25.73
2019-04-06T03:23:50.799Z,24.43
2019-04-06T03:26:59.870Z,25.03
2019-04-06T03:29:58.269Z,26.07
2019-04-06T03:33:00.690Z,28.60
2019-04-06T03:36:05.938Z,24.00
2019-04-06T03:39:10.891Z,24.43
2019-04-06T03:42:15.881Z,27.00
2019-04-06T03:45:20.888Z,30.30
2019-04-06T03:48:25.798Z,26.50
2019-04-06T03:51:30.899Z,21.40
2019-04-06T03:54:35.858Z,24.73
2019-04-06T03:57:40.895Z,24.07
2019-04-06T04:00:45.925Z,24.63
2019-04-06T04:03:50.906Z,24.67
2019-04-06T04:06:55.855Z,28.10
2019-04-06T04:10:00.838Z,26.80
2019-04-06T04:13:06.001Z,26.40
2019-04-06T04:16:11.017Z,25.33
2019-04-06T04:19:16.063Z,28.63
2019-04-06T04:22:20.997Z,27.07
2019-04-06T04:25:25.901Z,28.90
2019-04-06T04:28:31.078Z,25.40
2019-04-06T04:31:36.255Z,26.30
2019-04-06T04:34:41.245Z,27.30
2019-04-06T04:37:46.253Z,28.93
2019-04-06T04:40:51.178Z,29.60
2019-04-06T04:43:56.326Z,30.50
2019-04-06T04:47:01.281Z,28.83
2019-04-06T04:50:06.880Z,30.00
2019-04-06T04:53:11.839Z,27.13
2019-04-06T04:56:16.753Z,28.60
2019-04-06T04:59:21.679Z,24.53
2019-04-06T05:02:26.690Z,27.70
2019-04-06T05:05:31.600Z,26.43
2019-04-06T05:08:36.601Z,32.77
2019-04-06T05:11:41.526Z,28.83
2019-04-06T05:15:02.373Z,36.67
2019-04-06T05:18:07.324Z,29.73
2019-04-06T05:21:12.957Z,31.30
2019-04-06T05:24:17.868Z,40.27
2019-04-06T05:27:22.974Z,39.60
2019-04-06T05:30:27.890Z,31.83
2019-04-06T05:33:33.030Z,29.57
2019-04-06T05:36:37.941Z,28.23
2019-04-06T05:39:42.953Z,36.40
2019-04-06T05:42:47.959Z,31.90
2019-04-06T05:45:52.880Z,31.10
2019-04-06T05:48:57.810Z,29.53
2019-04-06T05:52:02.842Z,33.30
2019-04-06T05:55:08.211Z,28.93
2019-04-06T05:58:13.288Z,30.43
2019-04-06T06:01:18.192Z,27.83
2019-04-06T06:04:23.196Z,32.90
2019-04-06T06:07:28.195Z,39.23
2019-04-06T06:10:33.133Z,35.83
2019-04-06T06:13:39.339Z,39.10
2019-04-06T06:16:44.473Z,34.83
2019-04-06T06:19:49.496Z,33.60
2019-04-06T06:22:54.625Z,35.40
2019-04-06T06:25:59.730Z,35.10
2019-04-06T06:29:04.795Z,37.33
2019-04-06T06:32:09.792Z,31.17
2019-04-06T06:35:14.857Z,36.33
2019-04-06T06:38:19.923Z,33.47
2019-04-06T06:41:24.842Z,37.47
2019-04-06T06:44:29.762Z,35.40
2019-04-06T06:47:34.664Z,34.73
2019-04-06T06:50:39.677Z,33.93
2019-04-06T06:53:44.611Z,37.33
2019-04-06T06:56:49.526Z,37.17
2019-04-06T06:59:54.457Z,32.00
2019-04-06T07:02:59.361Z,37.07
2019-04-06T07:06:04.554Z,39.53
2019-04-06T07:09:09.699Z,37.47
2019-04-06T07:12:14.676Z,33.03
2019-04-06T07:15:19.744Z,34.53
2019-04-06T07:18:24.673Z,36.83
2019-04-06T07:21:29.818Z,40.90
2019-04-06T07:24:34.820Z,37.73
2019-04-06T07:27:39.759Z,36.30
2019-04-06T07:30:44.812Z,36.70
2019-04-06T07:33:49.746Z,37.63
2019-04-06T07:36:54.750Z,35.53
2019-04-06T07:39:59.695Z,39.03
2019-04-06T07:43:04.672Z,34.60
2019-04-06T07:46:09.709Z,36.93
2019-04-06T07:49:14.725Z,38.23
2019-04-06T07:52:19.680Z,38.57
2019-04-06T07:55:24.642Z,41.17
2019-04-06T07:58:29.557Z,37.63
2019-04-06T08:01:34.609Z,30.50
2019-04-06T08:04:39.574Z,38.90
2019-04-06T08:07:44.602Z,37.10
2019-04-06T08:10:49.534Z,33.20
2019-04-06T08:13:54.521Z,32.57
2019-04-06T08:16:59.525Z,34.90
2019-04-06T08:20:05.973Z,32.47
2019-04-06T08:23:10.894Z,36.57
2019-04-06T08:26:15.809Z,32.67
2019-04-06T08:29:20.890Z,35.57
2019-04-06T08:32:25.885Z,30.90
2019-04-06T08:35:30.832Z,30.80
2019-04-06T08:38:35.823Z,29.00
2019-04-06T08:41:40.767Z,28.13
2019-04-06T08:44:45.768Z,29.60
2019-04-06T08:47:50.845Z,25.83
2019-04-06T08:50:55.893Z,27.30
2019-04-06T08:54:00.819Z,29.90
2019-04-06T08:57:05.774Z,27.80
2019-04-06T09:00:11.545Z,26.73
2019-04-06T09:03:16.533Z,26.80
2019-04-06T09:06:21.545Z,24.97
2019-04-06T09:09:26.464Z,25.87
2019-04-06T09:12:31.379Z,26.10
2019-04-06T09:15:36.372Z,33.40
2019-04-06T09:18:41.556Z,28.70
2019-04-06T09:21:46.556Z,26.37
2019-04-06T09:24:51.761Z,27.27
2019-04-06T09:27:56.882Z,24.00
2019-04-06T09:31:01.924Z,23.90
2019-04-06T09:34:06.954Z,25.70
2019-04-06T09:37:11.986Z,24.90
2019-04-06T09:40:17.092Z,24.07
2019-04-06T09:43:22.100Z,22.80
2019-04-06T09:46:55.017Z,19.67
2019-04-06T09:50:18.138Z,22.90
2019-04-06T09:53:44.110Z,22.10
2019-04-06T09:57:17.237Z,23.90
2019-04-06T10:00:40.186Z,21.43
2019-04-06T10:03:55.577Z,23.37
2019-04-06T10:07:16.515Z,22.03
2019-04-06T10:10:34.819Z,22.13
2019-04-06T10:13:57.713Z,20.37
2019-04-06T10:17:40.324Z,21.57
2019-04-06T10:21:13.609Z,21.90
2019-04-06T10:24:40.402Z,20.70
2019-04-06T10:27:55.445Z,22.10
2019-04-06T10:31:22.499Z,19.20
2019-04-06T10:34:45.254Z,18.90
2019-04-06T10:37:57.252Z,20.77
2019-04-06T10:41:09.440Z,18.37
2019-04-06T10:44:42.648Z,19.10
2019-04-06T10:48:00.602Z,19.60
2019-04-06T10:51:14.828Z,17.60
2019-04-06T10:54:27.971Z,15.80
2019-04-06T10:57:38.748Z,14.07
2019-04-06T11:00:53.681Z,14.83
2019-04-06T11:04:07.696Z,14.20
2019-04-06T11:07:30.704Z,15.23
2019-04-06T11:10:45.668Z,15.37
2019-04-06T11:14:13.062Z,14.13
2019-04-06T11:17:38.344Z,15.07
2019-04-06T11:21:14.770Z,15.10
2019-04-06T11:24:53.916Z,16.27
2019-04-06T11:28:09.725Z,15.90
2019-04-06T11:31:39.989Z,15.30
2019-04-06T11:35:06.958Z,14.97
2019-04-06T11:38:32.220Z,17.13
2019-04-06T11:42:11.835Z,18.03
2019-04-06T11:45:25.976Z,16.87
2019-04-06T11:48:47.340Z,18.67
2019-04-06T11:52:03.793Z,17.27
2019-04-06T11:55:27.499Z,17.23
2019-04-06T11:58:42.270Z,16.23
2019-04-06T12:02:05.371Z,16.17
2019-04-06T12:05:35.425Z,16.60
2019-04-06T12:08:50.809Z,15.57
2019-04-06T12:12:24.142Z,14.70
2019-04-06T12:15:46.826Z,18.10
2019-04-06T12:19:00.647Z,17.80
2019-04-06T12:22:36.945Z,18.10
2019-04-06T12:26:07.205Z,14.67
2019-04-06T12:29:22.953Z,15.50
2019-04-06T12:32:53.090Z,14.67
2019-04-06T12:36:17.117Z,12.93
2019-04-06T12:39:26.125Z,14.57
2019-04-06T12:42:49.025Z,14.33
2019-04-06T12:46:15.894Z,14.60
2019-04-06T12:49:46.052Z,14.50
2019-04-06T12:53:22.096Z,14.57
2019-04-06T12:56:49.465Z,13.90
2019-04-06T13:00:09.858Z,15.47
2019-04-06T13:03:32.840Z,15.03
2019-04-06T13:07:00.161Z,13.93
2019-04-06T13:10:21.934Z,14.30
2019-04-06T13:13:45.014Z,14.30
2019-04-06T13:16:58.622Z,15.40
2019-04-06T13:20:13.115Z,15.50
2019-04-06T13:23:26.993Z,15.43
2019-04-06T13:26:49.829Z,13.60
2019-04-06T13:30:13.921Z,13.80
2019-04-06T13:33:25.703Z,13.57
2019-04-06T13:36:41.538Z,12.67
2019-04-06T13:40:09.156Z,13.70
2019-04-06T13:43:20.033Z,12.57
2019-04-06T13:46:41.773Z,13.07
2019-04-06T13:50:05.904Z,12.00
2019-04-06T13:53:45.254Z,11.83
2019-04-06T13:57:21.469Z,13.40
2019-04-06T14:00:35.911Z,12.83
2019-04-06T14:03:51.812Z,12.60
2019-04-06T14:07:06.472Z,12.20
2019-04-06T14:10:21.145Z,12.37
2019-04-06T14:13:33.580Z,13.70
2019-04-06T14:17:03.788Z,12.70
2019-04-06T14:20:40.057Z,13.67
2019-04-06T14:24:12.952Z,11.70
2019-04-06T14:27:37.036Z,13.50
2019-04-06T14:30:50.058Z,11.97
2019-04-06T14:34:12.938Z,14.67
2019-04-06T14:37:35.916Z,12.83
2019-04-06T14:40:53.344Z,14.10
2019-04-06T14:44:14.817Z,12.70
2019-04-06T14:47:40.430Z,12.40
2019-04-06T14:51:07.888Z,12.27
2019-04-06T14:54:34.770Z,12.33
2019-04-06T14:57:57.871Z,12.03
2019-04-06T15:01:18.809Z,10.47
2019-04-06T15:04:41.839Z,11.93
2019-04-06T15:08:14.885Z,12.00
2019-04-06T15:11:38.958Z,11.60
2019-04-06T15:15:21.531Z,12.00
2019-04-06T15:18:44.453Z,10.60
2019-04-06T15:22:00.020Z,12.97
2019-04-06T15:25:14.082Z,13.23
2019-04-06T15:28:40.897Z,13.03
2019-04-06T15:32:00.898Z,11.90
2019-04-06T15:35:35.081Z,13.03
2019-04-06T15:38:57.689Z,14.20
2019-04-06T15:42:25.465Z,14.00
2019-04-06T15:45:55.901Z,13.57
2019-04-06T15:49:17.748Z,13.93
2019-04-06T15:52:57.045Z,14.60
2019-04-06T15:56:19.762Z,13.30
2019-04-06T15:59:42.489Z,13.53
2019-04-06T16:03:12.838Z,13.70
2019-04-06T16:06:43.059Z,14.27
2019-04-06T16:09:56.639Z,13.03
2019-04-06T16:13:27.125Z,13.37
2019-04-06T16:16:57.583Z,14.07
2019-04-06T16:20:12.826Z,13.60
2019-04-06T16:23:35.569Z,13.70
2019-04-06T16:26:52.297Z,13.40
2019-04-06T16:30:15.334Z,13.90
2019-04-06T16:33:31.765Z,14.00
2019-04-06T16:36:48.078Z,13.13
2019-04-06T16:40:18.287Z,14.53
2019-04-06T16:43:45.117Z,13.40
2019-04-06T16:47:21.472Z,13.43
2019-04-06T16:50:52.851Z,13.23
2019-04-06T16:54:20.017Z,14.10
2019-04-06T16:57:43.513Z,12.87
2019-04-06T17:01:10.444Z,12.30
2019-04-06T17:04:40.636Z,12.87
2019-04-06T17:07:51.482Z,13.83
2019-04-06T17:11:08.776Z,13.33
2019-04-06T17:14:39.368Z,14.77
2019-04-06T17:17:56.344Z,12.80
2019-04-06T17:21:26.561Z,17.53
2019-04-06T17:25:02.976Z,15.03
2019-04-06T17:28:14.683Z,16.47
2019-04-06T17:31:34.662Z,16.30
2019-04-06T17:34:59.324Z,13.53
2019-04-06T17:38:12.290Z,13.87
2019-04-06T17:41:27.531Z,13.97
2019-04-06T17:45:10.373Z,13.57
2019-04-06T17:48:44.148Z,13.77
2019-04-06T17:52:11.005Z,21.23
2019-04-06T17:55:41.433Z,12.83
2019-04-06T17:59:05.590Z,13.00
2019-04-06T18:02:28.269Z,13.43
2019-04-06T18:05:57.010Z,12.50
2019-04-06T18:09:19.846Z,14.57
2019-04-06T18:12:34.830Z,12.83
2019-04-06T18:15:39.983Z,12.10
2019-04-06T18:18:45.118Z,14.03
2019-04-06T18:21:50.597Z,13.40
2019-04-06T18:24:55.769Z,13.50
2019-04-06T18:28:00.721Z,14.60
2019-04-06T18:31:24.893Z,15.13
2019-04-06T18:34:29.897Z,15.63
2019-04-06T18:37:43.022Z,15.40
2019-04-06T18:40:47.945Z,13.93
2019-04-06T18:43:52.948Z,13.20
2019-04-06T18:46:58.392Z,14.10
2019-04-06T18:50:03.556Z,20.03
2019-04-06T18:53:08.864Z,25.10
2019-04-06T18:56:13.932Z,15.53
2019-04-06T18:59:18.853Z,17.23
2019-04-06T19:02:23.937Z,18.83
2019-04-06T19:05:28.937Z,14.53
2019-04-06T19:08:34.300Z,14.33
2019-04-06T19:11:39.492Z,15.20
2019-04-06T19:14:44.417Z,18.50
2019-04-06T19:17:49.695Z,27.37
2019-04-06T19:20:54.959Z,19.57
2019-04-06T19:24:00.695Z,19.20
2019-04-06T19:27:05.812Z,16.00
2019-04-06T19:30:12.716Z,17.40
2019-04-06T19:33:25.167Z,16.50
2019-04-06T19:36:24.806Z,24.43
2019-04-06T19:39:29.867Z,16.60
2019-04-06T19:42:35.190Z,17.17
2019-04-06T19:45:40.176Z,18.47
2019-04-06T19:48:45.110Z,17.80
2019-04-06T19:51:50.040Z,17.80
2019-04-06T19:54:54.985Z,16.97
2019-04-06T19:57:59.993Z,17.20
2019-04-06T20:01:05.157Z,16.63
2019-04-06T20:04:10.469Z,15.23
2019-04-06T20:07:15.481Z,16.83
2019-04-06T20:10:20.558Z,14.73
2019-04-06T20:13:28.172Z,14.40
2019-04-06T20:16:32.258Z,13.07
2019-04-06T20:19:37.342Z,12.80
2019-04-06T20:22:42.458Z,12.87
2019-04-06T20:25:49.141Z,13.27
2019-04-06T20:28:54.091Z,11.57
2019-04-06T20:31:59.097Z,13.67
2019-04-06T20:35:04.533Z,12.20
2019-04-06T20:38:09.602Z,12.70
2019-04-06T20:41:14.629Z,12.80
2019-04-06T20:44:20.009Z,14.33
2019-04-06T20:47:25.132Z,17.93
2019-04-06T20:50:30.542Z,14.07
2019-04-06T20:53:36.783Z,14.97
2019-04-06T20:56:53.228Z,21.77
2019-04-06T20:59:48.704Z,27.07
2019-04-06T21:02:53.773Z,45.70
2019-04-06T21:05:58.768Z,53.63
2019-04-06T21:09:07.073Z,14.13
2019-04-06T21:12:12.629Z,9.10
2019-04-06T21:15:20.950Z,10.73
2019-04-06T21:18:24.426Z,10.00
2019-04-06T21:21:29.381Z,10.27
2019-04-06T21:24:35.047Z,9.83
2019-04-06T21:27:42.978Z,9.60
2019-04-06T21:30:46.713Z,10.20
2019-04-06T21:33:57.262Z,10.90
2019-04-06T21:37:02.256Z,9.33
2019-04-06T21:40:07.331Z,10.50
2019-04-06T21:43:12.324Z,13.00
2019-04-06T21:46:17.855Z,13.50
2019-04-06T21:49:23.212Z,13.67
2019-04-06T21:52:28.605Z,9.10
2019-04-06T21:55:33.633Z,10.87
2019-04-06T21:58:38.540Z,9.87
2019-04-06T22:01:44.347Z,9.07
2019-04-06T22:04:49.950Z,9.63
2019-04-06T22:07:54.944Z,10.40
2019-04-06T22:11:00.315Z,14.50
2019-04-06T22:14:05.542Z,15.00
2019-04-06T22:17:10.887Z,11.40
2019-04-06T22:20:16.060Z,11.50
2019-04-06T22:23:21.019Z,15.60
2019-04-06T22:26:26.046Z,14.03
2019-04-06T22:29:31.169Z,15.53
2019-04-06T22:32:36.492Z,8.77
2019-04-06T22:35:41.701Z,8.20
2019-04-06T22:38:47.014Z,8.23
2019-04-06T22:41:52.429Z,9.60
2019-04-06T22:44:57.743Z,8.97
2019-04-06T22:48:03.482Z,9.20
2019-04-06T22:51:08.533Z,9.60
2019-04-06T22:54:13.563Z,9.30
2019-04-06T22:57:18.677Z,9.27
2019-04-06T23:00:35.435Z,8.70
2019-04-06T23:03:58.721Z,9.43
2019-04-06T23:07:07.461Z,8.60
2019-04-06T23:10:12.656Z,9.37
2019-04-06T23:13:17.749Z,11.43
2019-04-06T23:16:23.035Z,7.50
2019-04-06T23:19:28.530Z,8.57
2019-04-06T23:22:33.597Z,8.50
2019-04-06T23:25:38.572Z,8.73
2019-04-06T23:28:43.503Z,7.70
2019-04-06T23:31:48.431Z,8.23
2019-04-06T23:35:00.534Z,8.93
2019-04-06T23:38:00.666Z,8.60
2019-04-06T23:41:05.864Z,8.00
2019-04-06T23:44:10.995Z,8.47
2019-04-06T23:47:16.048Z,7.60
2019-04-06T23:50:21.568Z,9.13
2019-04-06T23:53:26.567Z,10.30
2019-04-06T23:56:32.132Z,7.93
2019-04-06T23:59:37.212Z,8.57
